Sunday, July 22, 2018, 12:39 AM EDT
Back to Local

KDXR, Danbury Municipal Airport

Location: Danbury, CT, United States Lat: 41.367
Local Time: 12:39 AM EDT ( 4:39 GMT) Lon: -73.483
Time Zone: US/Eastern Elev: 459 ft

Show me the last for .
Show Decoded

2018-07-22 00:26 METAR KDXR 220426Z AUTO 06009KT 8SM -RA OVC013 17/15 A2998 RMK AO2 P0001
                 T01670150 =
2018-07-21 23:53 METAR KDXR 220353Z AUTO 08009KT 5SM -RA BR OVC017 17/14 A3000 RMK AO2 SLP156
                 P0002 T01670144 =
2018-07-21 22:53 METAR KDXR 220253Z AUTO 09008KT 9SM -RA OVC022 18/13 A3001 RMK AO2 RAB41 SLP160
                 P0000 60000 T01830133 58012 =
2018-07-21 21:53 METAR KDXR 220153Z 10012KT 10SM OVC026 20/12 A3003 RMK AO2 SLP167 T02000122 =
2018-07-21 21:40 METAR KDXR 220140Z 08012G19KT 10SM BKN028 BKN035 OVC042 20/12 A3003 RMK AO2
                 T02000122 =
2018-07-21 20:53 METAR KDXR 220053Z 08007KT 10SM OVC030 20/12 A3004 RMK AO2 SLP169 T02000117 =
2018-07-21 19:53 METAR KDXR 212353Z 08008KT 10SM FEW041 20/13 A3005 RMK AO2 SLP172 T02000128
                 10233 20200 58007 =
2018-07-21 18:53 METAR KDXR 212253Z 11007KT 10SM CLR 20/14 A3006 RMK AO2 SLP177 T02000144 =
2018-07-21 17:53 METAR KDXR 212153Z 12008KT 10SM CLR 21/14 A3006 RMK AO2 SLP178 T02060144 =
2018-07-21 16:53 METAR KDXR 212053Z 12007KT 10SM CLR 21/14 A3007 RMK AO2 SLP181 T02110139 56012 =
2018-07-21 15:53 METAR KDXR 211953Z 11011KT 10SM CLR 22/13 A3007 RMK AO2 SLP182 T02170133 =
2018-07-21 14:53 METAR KDXR 211853Z 11011G18KT 10SM CLR 23/11 A3009 RMK AO2 SLP187 T02280111 =
2018-07-21 13:53 METAR KDXR 211753Z 09011G19KT 10SM CLR 23/13 A3011 RMK AO2 SLP192 T02330128
                 10233 20178 56012 =
2018-07-21 12:53 METAR KDXR 211653Z 09008KT 060V140 10SM CLR 23/13 A3011 RMK AO2 SLP193 T02280128
                 =
2018-07-21 11:53 METAR KDXR 211553Z 11012KT 10SM CLR 23/12 A3014 RMK AO2 SLP202 T02280122 =
2018-07-21 10:53 METAR KDXR 211453Z 08011KT 10SM CLR 22/13 A3014 RMK AO2 SLP204 T02170128 53001 =
2018-07-21 09:53 METAR KDXR 211353Z 09010KT 10SM SCT028 BKN034 21/15 A3014 RMK AO2 SLP202
                 T02110150 =
2018-07-21 08:53 METAR KDXR 211253Z 10008KT 10SM CLR 20/16 A3013 RMK AO2 SLP200 T02000156 =
2018-07-21 07:53 METAR KDXR 211153Z 05003KT 10SM CLR 18/16 A3014 RMK AO2 SLP203 T01780156 10178
                 20128 55001 =
2018-07-21 06:53 METAR KDXR 211053Z 04003KT 10SM FEW029 16/14 A3013 RMK AO2 SLP201 T01610144 =
2018-07-21 05:53 METAR KDXR 210953Z AUTO 00000KT 10SM CLR 14/14 A3014 RMK AO2 SLP202 T01390139 =
2018-07-21 04:53 METAR KDXR 210853Z AUTO 00000KT 10SM CLR 13/13 A3014 RMK AO2 SLP205 T01330128
                 55000 =
2018-07-21 03:53 METAR KDXR 210753Z AUTO 00000KT 10SM CLR 13/13 A3014 RMK AO2 SLP203 T01330128 =
2018-07-21 02:53 METAR KDXR 210653Z AUTO 00000KT 10SM CLR 14/14 A3014 RMK AO2 SLP201 T01390139 =
2018-07-21 01:53 METAR KDXR 210553Z AUTO 23003KT 10SM CLR 14/13 A3014 RMK AO2 SLP205 T01390128
                 10228 20139 58004 =
2018-07-21 00:53 METAR KDXR 210453Z AUTO 23003KT 10SM CLR 14/13 A3015 RMK AO2 SLP206 T01440133
                 402720128 =

Support USWX by starting your Amazon purchase here.